Plaisance, Maurice

08:17 MUT le 02 septembre 2014 (GMT +0400)
Mauritius International | Change Station
CLOSE
Current Station
Aéroport
Location: Plaisance,
Altitude: 187 ft
Stations météo à proximité

Alt. 187 ft 20.43 °S, 57.68 °E | Updated 17 minutes ago

Partly Cloudy
Partiellement nuageux
68 ° F
Paraît 68 ° F
N
4
Vent Variable Vent de Nord

Aujourd'hui
Haut(e) -- | Bas -- ° F
--% Risque de précip.
Hier
Haut(e) -- | Bas -- ° F
Precip. -- pouce
6:17 AM 6:00 PM
Lune montante, 47% visible
Pression 29.98 pouce
Visibilité 6.2 Miles terrestres
Nuages Peu 1800 ft
Point de rosée 68 ° F
Humidité 100%
Précipitations 0.00 pouce
Profondeur de la couche neigeuse Non disponible.
UV 2 sur 12
Pollen Non disponible.
Qualité de l'air Non disponible.
Flu Activity Non disponible.
METAR FIMP 020400Z 36003KT 9999 FEW018 20/20 Q1015

More Conditions Fewer Conditions

Pression 29.98 pouce
Visibilité 6.2 Miles terrestres
Nuages Peu 1800 ft
Point de rosée 68 ° F
Humidité 100%
Précipitations 0.00 pouce
Profondeur de la couche neigeuse Non disponible.
UV 2 sur 12
Pollen Non disponible.
Qualité de l'air Non disponible.
Flu Activity Non disponible.
METAR FIMP 020400Z 36003KT 9999 FEW018 20/20 Q1015

More Conditions Fewer Conditions

10-Day Weather Forecast

Almanac

Astronomie

Sep. 02, 2014 Lever Coucher
Temps réel 06:17 MUT 18:00 MUT
Crépuscule civil 05:55 MUT 18:23 MUT
Crépuscule nautique 05:29 MUT 18:48 MUT
Crépuscule astronomique 05:03 MUT 19:14 MUT
Lune 11:24 MUT Pas de coucher de lune
Durée de lumière visible 12h 27m
Longueur du jour
11h 43m
Tomorrow will be 1m 6s longer.
Lune montante, 47% of the Moon is Illuminated
Aujourd'hui
Lune montante
Sep 2
Premier quartier
Sep 8
Pleine lune
Sep 15
Dernier quartier
Sep 24
Nouveau

Les extrêmes de température d’hier

Country Highs Country Lows

Community

WunderPhotos

Upload Photos

1,749,560 Photos téléchargées !

WunderBlogs® & News

Nearby

Qualité de l'air

Not available.

Épaisseur de neige

Not available.

Activité sismique

Ville Distance Mag. Time & Date
No recent earthquake activity has been reported nearby.
Minimum magnitude displayed is 2.5.

Températures des eaux côtières

Lieu Température
Aucun rapport de station

Stations météo à proximité